Flight Track Log - Related Links

Times and Time Zones

All times are in EDT time to prevent confusion due to time zone crossing. See the DLH621 flight status page for this flight to view local times or setup timezone preferences in your user account.

Time Position Orientation Groundspeed Altitude Reporting Facility
EDT Latitude Longitude Course Direction KTS MPH feet Rate Location/Type
Sun 04:12:32 PM 26.2474 50.6554 140° Southeast  Level Estimated
Sun 04:13:32 PM 26.2036 50.6964 140° Southeast  Level Estimated
Sun 04:14:32 PM 26.1597 50.7372 140° Southeast  Level Estimated
Sun 04:15:32 PM 26.1158 50.7781 140° Southeast  Level Estimated
Sun 04:16:32 PM 26.0718 50.8189 140° Southeast  Level Estimated
Sun 04:17:32 PM 26.0279 50.8596 140° Southeast  Level Estimated
Sun 04:18:32 PM 25.9840 50.9004 140° Southeast  Level Estimated
Sun 04:19:32 PM 25.9400 50.9411 140° Southeast  Level Estimated
Sun 04:20:32 PM 25.8961 50.9818 140° Southeast  Level Estimated
Sun 04:21:32 PM 25.8521 51.0225 140° Southeast  Level Estimated
Sun 04:22:32 PM 25.8081 51.0631 140° Southeast  Level Estimated
Sun 04:23:32 PM 25.7641 51.1037 140° Southeast  Level Estimated
Sun 04:24:32 PM 25.7201 51.1443 140° Southeast  Level Estimated
Sun 04:25:32 PM 25.6840 51.1776 140° Southeast  Level Estimated
Sun 04:26:32 PM 25.6478 51.2109 140° Southeast  Level Estimated
Sun 04:27:32 PM 25.6116 51.2441 140° Southeast  Level Estimated
Sun 04:28:32 PM 25.5755 51.2774 140° Southeast  Level Estimated
Sun 04:29:32 PM 25.5393 51.3106 140° Southeast  Level Estimated
Sun 04:30:32 PM 25.5031 51.3438 140° Southeast  Level Estimated
Sun 04:31:32 PM 25.4669 51.3770 140° Southeast  Level Estimated
Sun 04:32:32 PM 25.4307 51.4101 140° Southeast  Level Estimated
Sun 04:33:32 PM 25.3944 51.4433 140° Southeast  Level Estimated
Sun 04:34:32 PM 25.3582 51.4764 140° Southeast  Level Estimated
Sun 04:35:32 PM 25.3220 51.5095 140° Southeast  Level Estimated
Sun 04:36:32 PM 25.2857 51.5426 140° Southeast  Level Estimated
Sun 04:37:32 PM 25.2495 51.5756 320° Northwest  Level Estimated
Sun 04:38:32 PM 25.2857 51.5426 140° Southeast  Level Estimated
Sun 04:39:32 PM 25.2495 51.5756 320° Northwest  Level Estimated
Sun 04:40:32 PM 25.2857 51.5426 140° Southeast  Level Estimated
Sun 04:41:32 PM 25.2495 51.5756 320° Northwest  Level Estimated
Sun 04:42:32 PM 25.2857 51.5426 140° Southeast  Level Estimated
Sun 04:43:32 PM 25.2495 51.5756 320° Northwest  Level Estimated
Sun 04:44:32 PM 25.2857 51.5426 140° Southeast  Level Estimated
Sun 04:45:32 PM 25.2495 51.5756 320° Northwest  Level Estimated
Sun 04:46:32 PM 25.2857 51.5426 140° Southeast  Level Estimated
Sun 04:47:32 PM 25.2495 51.5756 320° Northwest  Level Estimated
Sun 04:48:32 PM 25.2857 51.5426 140° Southeast  Level Estimated
Sun 04:49:32 PM 25.2495 51.5756 320° Northwest  Level Estimated
Sun 04:50:32 PM 25.2857 51.5426 140° Southeast  Level Estimated
Sun 04:51:32 PM 25.2495 51.5756 320° Northwest  Level Estimated
Sun 04:52:32 PM 25.2857 51.5426 140° Southeast  Level Estimated
Sun 04:53:32 PM 25.2495 51.5756 320° Northwest  Level Estimated
Sun 04:54:32 PM 25.2857 51.5426 140° Southeast  Level Estimated
Sun 04:55:32 PM 25.2495 51.5756 140° Southeast  Level Estimated

Login

Don't have an account? Register now (free) for customized features, flight alerts, and more!